createdAt,value
2022-08-24T00:04:00.593Z,19.52
2022-08-24T00:14:03.609Z,21.77
2022-08-24T00:24:08.538Z,16.25
2022-08-24T00:34:13.612Z,21.95
2022-08-24T00:44:19.007Z,17.10
2022-08-24T00:54:23.577Z,23.27
2022-08-24T01:04:35.689Z,12.07
2022-08-24T01:14:39.239Z,11.48
2022-08-24T01:24:47.503Z,22.85
2022-08-24T01:34:51.081Z,21.95
2022-08-24T01:44:55.835Z,23.80
2022-08-24T01:54:58.895Z,15.10
2022-08-24T02:05:03.393Z,18.73
2022-08-24T02:15:08.895Z,19.77
2022-08-24T02:25:14.306Z,15.73
2022-08-24T02:35:19.305Z,25.35
2022-08-24T02:45:25.866Z,20.33
2022-08-24T02:55:29.541Z,14.35
2022-08-24T03:05:34.865Z,18.38
2022-08-24T03:15:38.461Z,12.90
2022-08-24T03:25:43.230Z,14.93
2022-08-24T03:35:46.345Z,13.23
2022-08-24T03:45:51.091Z,15.98
2022-08-24T03:55:54.536Z,13.00
2022-08-24T04:05:59.927Z,16.08
2022-08-24T04:16:05.927Z,14.20
2022-08-24T04:26:11.150Z,17.13
2022-08-24T04:36:15.418Z,16.50
2022-08-24T04:46:21.304Z,17.33
2022-08-24T04:56:27.125Z,19.60
2022-08-24T05:06:33.635Z,19.63
2022-08-24T05:16:38.411Z,15.52
2022-08-24T05:26:45.125Z,18.13
2022-08-24T05:36:49.188Z,14.48
2022-08-24T05:46:55.216Z,32.55
2022-08-24T05:57:05.343Z,21.30
2022-08-24T06:07:11.877Z,14.10
2022-08-24T06:17:17.754Z,19.48
2022-08-24T06:27:23.690Z,13.45
2022-08-24T06:37:29.898Z,17.75
2022-08-24T06:47:38.499Z,27.35
2022-08-24T06:57:47.988Z,24.02
2022-08-24T07:07:56.508Z,24.77
2022-08-24T07:18:00.206Z,20.45
2022-08-24T07:28:09.507Z,29.38
2022-08-24T07:38:14.058Z,27.50
2022-08-24T07:48:19.443Z,19.13
2022-08-24T07:58:22.543Z,19.23
2022-08-24T08:08:27.725Z,13.50
2022-08-24T08:18:35.327Z,15.10
2022-08-24T08:28:42.856Z,18.70
2022-08-24T08:38:46.516Z,13.15
2022-08-24T08:49:29.570Z,12.20
2022-08-24T08:59:48.888Z,19.40
2022-08-24T09:10:26.457Z,8.95
2022-08-24T09:20:58.623Z,14.00
2022-08-24T09:31:30.058Z,11.68
2022-08-24T09:42:18.408Z,8.48
2022-08-24T09:52:50.943Z,8.65
2022-08-24T10:03:01.566Z,8.40
2022-08-24T10:13:18.837Z,15.15
2022-08-24T10:23:51.362Z,10.10
2022-08-24T10:34:14.071Z,11.35
2022-08-24T10:44:43.117Z,8.50
2022-08-24T10:54:48.929Z,8.90
2022-08-24T11:04:57.362Z,8.32
2022-08-24T11:15:04.540Z,9.85
2022-08-24T11:25:16.982Z,10.23
2022-08-24T11:35:26.366Z,7.47
2022-08-24T11:45:37.216Z,8.80
2022-08-24T11:55:51.896Z,9.02
2022-08-24T12:06:08.647Z,8.63
2022-08-24T12:16:21.559Z,8.52
2022-08-24T12:26:30.162Z,9.27
2022-08-24T12:36:42.347Z,7.03
2022-08-24T12:46:53.488Z,8.15
2022-08-24T12:57:17.691Z,8.75
2022-08-24T13:07:31.026Z,8.20
2022-08-24T13:17:42.700Z,10.57
2022-08-24T13:28:03.001Z,8.63
2022-08-24T13:38:42.421Z,8.00
2022-08-24T13:48:59.686Z,7.97
2022-08-24T13:59:10.272Z,8.07
2022-08-24T14:09:36.240Z,8.80
2022-08-24T14:19:57.085Z,11.90
2022-08-24T14:30:34.112Z,11.48
2022-08-24T14:40:53.546Z,9.40
2022-08-24T14:51:04.433Z,8.02
2022-08-24T15:01:29.474Z,11.45
2022-08-24T15:11:38.516Z,17.45
2022-08-24T15:21:51.774Z,9.63
2022-08-24T15:32:06.075Z,11.15
2022-08-24T15:42:14.872Z,11.32
2022-08-24T15:52:47.629Z,10.48
2022-08-24T16:02:52.238Z,10.77
2022-08-24T16:13:07.496Z,12.65
2022-08-24T16:23:21.549Z,10.07
2022-08-24T16:33:43.215Z,11.63
2022-08-24T16:43:50.350Z,13.63
2022-08-24T16:53:54.606Z,23.30
2022-08-24T17:03:59.394Z,17.48
2022-08-24T17:14:03.696Z,16.63
2022-08-24T17:24:10.692Z,17.88
2022-08-24T17:34:15.419Z,16.42
2022-08-24T17:44:28.096Z,19.45
2022-08-24T17:54:35.023Z,19.75
2022-08-24T18:04:40.473Z,28.00
2022-08-24T18:14:44.494Z,23.50
2022-08-24T18:24:53.218Z,15.02
2022-08-24T18:34:58.161Z,20.27
2022-08-24T18:45:03.365Z,24.55
2022-08-24T18:55:08.429Z,18.83
2022-08-24T19:05:15.621Z,18.88
2022-08-24T19:15:29.119Z,25.20
2022-08-24T19:25:46.028Z,19.48
2022-08-24T19:35:51.543Z,18.95
2022-08-24T19:46:06.035Z,19.05
2022-08-24T19:56:09.872Z,21.88
2022-08-24T20:06:16.379Z,20.02
2022-08-24T20:16:21.213Z,18.27
2022-08-24T20:26:26.487Z,12.88
2022-08-24T20:36:34.970Z,16.90
2022-08-24T20:46:41.646Z,14.32
2022-08-24T20:56:50.483Z,14.80
2022-08-24T21:06:55.460Z,18.92
2022-08-24T21:16:59.560Z,24.27
2022-08-24T21:27:04.572Z,17.63
2022-08-24T21:37:12.081Z,17.85
2022-08-24T21:47:17.691Z,16.05
2022-08-24T21:57:21.317Z,18.45
2022-08-24T22:07:26.441Z,13.77
2022-08-24T22:17:30.217Z,17.05
2022-08-24T22:27:35.453Z,13.23
2022-08-24T22:37:38.692Z,14.43
2022-08-24T22:47:43.150Z,17.20
2022-08-24T22:57:46.604Z,22.27
2022-08-24T23:07:56.211Z,19.83
2022-08-24T23:18:19.109Z,16.20
2022-08-24T23:28:23.748Z,32.95
2022-08-24T23:38:28.174Z,24.00
2022-08-24T23:48:33.424Z,15.75
2022-08-24T23:58:37.605Z,20.50
